Time;durP1;ratioP1;P1;durP2;ratioP2;P2;SDS_P1;SDS_P2;PMS_P1;PMS_P2;Temp;Humidity;BMP_temperature;BMP_pressure;BME280_temperature;BME280_humidity;BME280_pressure;Samples;Min_cycle;Max_cycle;Signal;HPM_P1;HPM_P2
2022/08/05 00:01:23;;;;;;;4.95;2.55;;;;;;;26.98;56.63;98359.41;5016880;28;20068;-61
2022/08/05 00:03:49;;;;;;;5.18;2.78;;;;;;;26.93;56.58;98360.22;5015698;28;20035;-58
2022/08/05 00:06:15;;;;;;;4.55;2.63;;;;;;;26.76;56.83;98328.38;5001715;28;20103;-61
2022/08/05 00:08:41;;;;;;;4.30;2.60;;;;;;;26.84;55.67;98345.75;5001695;28;20731;-59
2022/08/05 00:11:10;;;;;;;4.50;2.40;;;;;;;26.96;55.48;98362.38;5016174;28;20037;-60
2022/08/05 00:13:37;;;;;;;5.78;2.75;;;;;;;26.84;55.62;98362.53;4999169;28;20655;-60
2022/08/05 00:16:04;;;;;;;4.82;2.70;;;;;;;26.62;55.93;98329.88;5002685;28;20099;-59
2022/08/05 00:18:29;;;;;;;5.38;2.58;;;;;;;26.87;55.56;98366.59;5001762;28;20021;-62
2022/08/05 00:20:55;;;;;;;6.35;2.88;;;;;;;26.76;55.31;98362.22;5020531;28;20519;-60
2022/08/05 00:23:21;;;;;;;6.47;2.70;;;;;;;26.73;56.60;98357.41;5022451;28;20775;-60
2022/08/05 00:25:46;;;;;;;4.70;2.63;;;;;;;26.80;56.77;98364.13;5021789;28;20564;-60
2022/08/05 00:28:12;;;;;;;5.18;2.53;;;;;;;26.83;55.72;98357.47;5025160;28;20033;-60
2022/08/05 00:30:38;;;;;;;6.68;2.90;;;;;;;26.75;56.34;98358.75;5001543;28;20187;-61
2022/08/05 00:33:03;;;;;;;5.05;2.50;;;;;;;26.70;57.48;98361.38;5021246;28;20026;-59
2022/08/05 00:35:28;;;;;;;5.57;2.60;;;;;;;26.64;57.13;98370.41;5021350;28;20504;-59
2022/08/05 00:37:54;;;;;;;6.47;2.67;;;;;;;26.62;57.90;98359.19;5015241;28;20040;-63
2022/08/05 00:40:22;;;;;;;4.40;2.50;;;;;;;26.60;57.44;98363.97;5017252;28;20037;-60
2022/08/05 00:42:47;;;;;;;7.10;2.70;;;;;;;26.57;56.92;98359.91;4993693;28;20105;-60
2022/08/05 00:45:12;;;;;;;4.78;2.70;;;;;;;26.34;57.72;98326.44;5014523;28;20112;-60
2022/08/05 00:47:39;;;;;;;4.18;2.47;;;;;;;26.52;58.08;98365.22;5014964;28;20029;-60
2022/08/05 00:50:05;;;;;;;6.68;2.90;;;;;;;26.53;58.08;98350.03;5024602;28;20123;-59
2022/08/05 00:52:30;;;;;;;7.95;2.80;;;;;;;26.37;58.07;98325.13;5002911;28;20029;-60
2022/08/05 00:54:56;;;;;;;4.60;2.53;;;;;;;26.50;58.15;98342.53;5021471;28;20044;-59
2022/08/05 00:57:21;;;;;;;5.25;2.92;;;;;;;26.39;57.64;98353.13;5016735;28;20030;-59
2022/08/05 00:59:47;;;;;;;5.72;2.78;;;;;;;26.39;57.35;98365.63;5021032;28;20021;-59
2022/08/05 01:02:13;;;;;;;5.47;2.53;;;;;;;26.40;57.34;98352.06;5003136;28;20042;-62
2022/08/05 01:04:38;;;;;;;4.68;2.35;;;;;;;26.47;57.30;98365.19;5013542;28;20467;-58
2022/08/05 01:07:05;;;;;;;4.95;2.45;;;;;;;26.47;57.54;98362.53;5019588;28;20033;-59
2022/08/05 01:09:31;;;;;;;6.15;2.47;;;;;;;26.26;58.57;98340.22;4996233;28;20076;-59
2022/08/05 01:11:59;;;;;;;4.88;2.50;;;;;;;26.30;58.26;98354.63;5013191;28;20060;-57
2022/08/05 01:14:43;;;;;;;5.50;2.50;;;;;;;26.11;58.07;98356.88;4996996;28;20034;-60
2022/08/05 01:17:12;;;;;;;5.82;2.50;;;;;;;26.16;58.63;98366.75;5002796;28;20033;-60
2022/08/05 01:19:37;;;;;;;5.70;2.50;;;;;;;26.16;59.07;98370.25;5002212;28;20036;-59
2022/08/05 01:22:22;;;;;;;6.10;2.70;;;;;;;26.00;60.47;98350.63;5017352;28;20018;-60
2022/08/05 01:25:10;;;;;;;6.20;2.70;;;;;;;26.10;60.99;98357.91;5008605;28;20288;-62
2022/08/05 01:28:15;;;;;;;6.45;2.85;;;;;;;26.13;61.05;98357.41;5016700;28;20033;-60
2022/08/05 01:30:47;;;;;;;5.53;2.58;;;;;;;26.06;60.54;98351.50;5017451;28;20113;-60
2022/08/05 01:33:14;;;;;;;5.13;2.67;;;;;;;26.02;60.76;98356.53;5003705;28;20511;-61
2022/08/05 01:35:41;;;;;;;4.30;2.50;;;;;;;25.97;59.87;98347.66;5002564;28;20811;-60
2022/08/05 01:38:07;;;;;;;4.45;2.55;;;;;;;25.96;60.41;98354.06;5003328;28;20026;-58
2022/08/05 01:40:33;;;;;;;5.72;2.95;;;;;;;25.80;61.35;98339.75;5011446;28;20028;-63
2022/08/05 01:43:01;;;;;;;5.20;2.63;;;;;;;25.94;60.65;98354.31;5020640;28;20033;-62
2022/08/05 01:45:28;;;;;;;5.57;2.83;;;;;;;25.98;61.25;98351.97;5001499;28;20432;-61
2022/08/05 01:47:54;;;;;;;5.07;2.78;;;;;;;25.80;60.82;98334.44;5002182;28;20549;-60
2022/08/05 01:50:25;;;;;;;5.10;2.72;;;;;;;25.95;61.64;98347.91;5011588;28;20029;-59
2022/08/05 01:52:52;;;;;;;5.38;2.90;;;;;;;26.00;61.40;98355.16;5002484;28;20116;-60
2022/08/05 01:55:21;;;;;;;6.45;3.17;;;;;;;25.94;61.47;98354.31;5000008;28;20456;-59
2022/08/05 01:57:48;;;;;;;4.93;2.65;;;;;;;25.98;61.71;98354.63;5001343;28;20473;-60
2022/08/05 02:00:13;;;;;;;6.88;3.15;;;;;;;26.03;60.87;98355.47;5002869;28;20029;-59
2022/08/05 02:02:46;;;;;;;5.72;2.70;;;;;;;25.96;61.15;98348.75;5017465;28;20085;-60
2022/08/05 02:05:13;;;;;;;8.07;2.63;;;;;;;25.70;61.03;98316.47;5017699;28;20037;-60
2022/08/05 02:07:39;;;;;;;4.30;2.63;;;;;;;25.74;61.92;98346.88;5016070;28;20621;-62
2022/08/05 02:10:05;;;;;;;4.75;2.80;;;;;;;25.79;62.34;98357.59;5020059;28;20324;-60
2022/08/05 02:12:54;;;;;;;5.32;2.88;;;;;;;25.66;61.54;98348.13;5001603;28;20037;-61
2022/08/05 02:15:34;;;;;;;5.00;2.80;;;;;;;25.32;61.80;98328.84;5001682;28;20506;-61
2022/08/05 02:18:06;;;;;;;5.28;3.30;;;;;;;25.57;61.88;98354.94;5000360;28;20104;-61
2022/08/05 02:20:53;;;;;;;4.45;2.70;;;;;;;25.52;62.41;98358.34;5015582;28;20547;-58
2022/08/05 02:23:21;;;;;;;6.18;2.88;;;;;;;25.52;62.49;98358.34;5011374;28;20049;-59
2022/08/05 02:25:48;;;;;;;5.15;2.70;;;;;;;25.34;63.41;98358.66;5006333;28;20029;-59
2022/08/05 02:28:14;;;;;;;4.80;2.75;;;;;;;25.44;63.25;98357.97;5005144;28;20284;-60
2022/08/05 02:30:51;;;;;;;5.63;2.90;;;;;;;25.41;63.50;98363.78;5021075;28;20716;-60
2022/08/05 02:33:19;;;;;;;4.90;2.78;;;;;;;25.42;63.13;98358.22;5003372;28;20037;-59
2022/08/05 02:35:45;;;;;;;4.75;2.70;;;;;;;25.27;63.56;98326.91;5019030;28;20105;-60
2022/08/05 02:38:12;;;;;;;5.50;3.08;;;;;;;25.57;63.25;98348.81;5020536;28;20115;-60
2022/08/05 02:40:41;;;;;;;6.40;2.70;;;;;;;25.49;63.98;98352.72;5021812;28;20032;-58
2022/08/05 02:43:06;;;;;;;;;;;;;;;25.58;63.43;98351.22;5001893;28;20041;-61
2022/08/05 02:45:32;;;;;;;8.15;2.58;;;;;;;25.74;62.49;98346.88;5037600;28;19909;-58
2022/08/05 02:47:59;;;;;;;5.50;2.70;;;;;;;25.75;62.46;98340.50;5021447;28;20026;-58
2022/08/05 02:50:25;;;;;;;4.88;2.80;;;;;;;25.79;61.92;98344.28;5003690;28;20492;-59
2022/08/05 02:52:52;;;;;;;6.60;2.85;;;;;;;25.56;61.30;98302.75;5022040;28;20030;-60
2022/08/05 02:55:17;;;;;;;5.63;2.70;;;;;;;25.75;60.86;98345.81;5005739;28;20101;-59
2022/08/05 02:57:43;;;;;;;4.65;2.70;;;;;;;25.79;60.74;98349.63;5002274;28;20029;-61
2022/08/05 03:00:11;;;;;;;5.53;2.97;;;;;;;25.69;61.72;98344.97;5020654;28;20048;-58
2022/08/05 03:02:38;;;;;;;5.15;2.67;;;;;;;25.73;61.36;98337.28;5021083;28;20022;-61
2022/08/05 03:05:07;;;;;;;4.90;2.67;;;;;;;25.59;62.16;98333.41;5005022;28;20051;-60
2022/08/05 03:07:32;;;;;;;7.38;3.40;;;;;;;25.31;61.98;98301.41;5021411;28;20025;-59
2022/08/05 03:09:58;;;;;;;4.60;2.75;;;;;;;25.39;61.83;98321.47;5021034;28;20037;-60
2022/08/05 03:12:36;;;;;;;5.78;2.70;;;;;;;25.13;62.34;98299.84;5016703;28;20030;-60
2022/08/05 03:15:08;;;;;;;4.68;2.60;;;;;;;25.49;63.41;98340.22;5016868;28;20029;-59
2022/08/05 03:17:34;;;;;;;8.70;2.90;;;;;;;25.37;63.44;98291.63;5020506;28;20121;-59
2022/08/05 03:19:59;;;;;;;4.82;2.72;;;;;;;25.52;63.61;98338.94;5000166;28;20112;-59
2022/08/05 03:22:25;;;;;;;5.53;2.78;;;;;;;25.22;63.91;98297.53;5020112;28;20037;-59
2022/08/05 03:24:51;;;;;;;5.30;2.60;;;;;;;25.29;64.23;98313.38;5018227;28;20124;-60
2022/08/05 03:27:17;;;;;;;5.97;2.65;;;;;;;25.27;64.21;98312.81;5004083;28;20029;-59
2022/08/05 03:29:43;;;;;;;6.35;2.90;;;;;;;25.08;64.26;98283.81;4997317;28;20025;-59
2022/08/05 03:32:09;;;;;;;7.53;3.03;;;;;;;25.24;64.86;98319.41;5019893;28;20052;-59
2022/08/05 03:34:35;;;;;;;4.95;2.72;;;;;;;25.32;64.48;98315.53;5014408;28;20037;-60
2022/08/05 03:37:02;;;;;;;5.65;3.40;;;;;;;25.42;63.80;98322.81;5015451;28;20029;-61
2022/08/05 03:39:28;;;;;;;6.80;2.97;;;;;;;25.36;63.42;98298.03;5005591;28;20084;-59
2022/08/05 03:41:54;;;;;;;5.60;3.00;;;;;;;25.38;64.46;98321.72;5018719;28;20529;-58
2022/08/05 03:44:19;;;;;;;5.85;3.00;;;;;;;25.12;63.60;98281.47;5018451;28;20041;-60
2022/08/05 03:46:45;;;;;;;5.07;2.95;;;;;;;25.24;63.85;98314.09;5021558;28;20040;-58
2022/08/05 03:49:10;;;;;;;6.25;3.13;;;;;;;25.11;63.52;98315.22;5021745;28;20443;-60
2022/08/05 03:51:40;;;;;;;6.65;2.90;;;;;;;24.97;63.44;98286.59;5019125;28;20057;-59
2022/08/05 03:54:14;;;;;;;5.55;2.90;;;;;;;25.27;63.18;98316.25;5004977;28;20125;-59
2022/08/05 03:56:42;;;;;;;5.07;2.63;;;;;;;25.17;63.59;98316.09;5003142;28;21083;-59
2022/08/05 03:59:23;;;;;;;5.55;2.83;;;;;;;25.21;61.49;98305.78;4999023;28;20110;-59
2022/08/05 04:01:50;;;;;;;5.20;2.72;;;;;;;25.35;61.79;98311.56;5018089;28;20249;-59
2022/08/05 04:04:17;;;;;;;5.50;2.70;;;;;;;25.31;62.49;98301.41;5004537;28;20040;-60
2022/08/05 04:06:43;;;;;;;5.20;2.90;;;;;;;25.32;63.37;98299.56;5022373;28;20032;-58
2022/08/05 04:09:09;;;;;;;4.97;2.90;;;;;;;25.26;63.50;98313.84;4998123;28;20037;-59
2022/08/05 04:11:35;;;;;;;6.88;2.85;;;;;;;25.29;63.77;98316.03;5019839;28;20032;-58
2022/08/05 04:14:01;;;;;;;4.75;2.75;;;;;;;25.06;64.06;98309.88;4997927;28;20091;-60
2022/08/05 04:16:27;;;;;;;7.00;2.85;;;;;;;24.99;64.46;98303.94;5013130;28;20037;-62
2022/08/05 04:18:53;;;;;;;5.40;3.30;;;;;;;24.89;65.22;98315.22;4997873;28;20200;-59
2022/08/05 04:21:18;;;;;;;5.88;3.10;;;;;;;24.86;65.46;98315.72;5020152;28;20025;-60
2022/08/05 04:23:43;;;;;;;5.95;3.17;;;;;;;24.78;65.59;98316.13;5018135;28;20026;-58
2022/08/05 04:26:09;;;;;;;4.95;3.03;;;;;;;24.73;65.67;98314.22;5013096;28;20025;-59
2022/08/05 04:28:34;;;;;;;6.90;3.30;;;;;;;24.61;65.69;98289.56;5015061;28;20037;-59
2022/08/05 04:31:00;;;;;;;4.85;3.00;;;;;;;24.72;65.61;98309.94;5020154;28;20025;-61
2022/08/05 04:33:25;;;;;;;7.45;2.85;;;;;;;24.62;65.36;98293.03;5018965;28;20029;-60
2022/08/05 04:35:51;;;;;;;4.90;3.00;;;;;;;24.84;64.81;98324.97;5014804;28;20022;-60
2022/08/05 04:38:16;;;;;;;4.90;3.00;;;;;;;24.82;65.01;98317.22;5016736;28;20389;-60
2022/08/05 04:40:42;;;;;;;5.88;3.17;;;;;;;24.88;65.03;98331.41;5017386;28;20033;-59
2022/08/05 04:43:07;;;;;;;8.75;3.17;;;;;;;24.81;64.87;98326.28;5021645;28;20420;-57
2022/08/05 04:45:33;;;;;;;5.70;3.03;;;;;;;24.83;65.24;98328.69;5019976;28;21085;-58
2022/08/05 04:48:13;;;;;;;5.05;2.90;;;;;;;24.79;65.99;98333.69;5003376;28;20041;-61
2022/08/05 04:50:44;;;;;;;5.20;2.67;;;;;;;24.62;64.94;98301.78;4994606;28;20726;-57
2022/08/05 04:53:11;;;;;;;5.93;3.05;;;;;;;24.84;64.67;98333.75;5002244;28;20096;-58
2022/08/05 04:55:37;;;;;;;6.82;3.10;;;;;;;24.78;65.85;98332.06;5017784;28;20032;-58
2022/08/05 04:58:04;;;;;;;5.50;3.10;;;;;;;24.79;66.08;98333.69;5017610;28;20037;-60
2022/08/05 05:00:34;;;;;;;6.18;3.08;;;;;;;24.72;66.93;98327.75;5012271;28;20037;-59
2022/08/05 05:02:59;;;;;;;;;;;;;;;24.79;66.73;98324.91;5013403;28;20034;-61
2022/08/05 05:05:24;;;;;;;4.70;2.83;;;;;;;24.89;66.16;98322.38;5019168;28;19923;-58
2022/08/05 05:07:50;;;;;;;5.20;3.15;;;;;;;24.91;65.91;98322.94;5018216;28;20915;-58
2022/08/05 05:10:16;;;;;;;5.45;2.70;;;;;;;24.61;65.85;98286.91;5020657;28;20087;-60
2022/08/05 05:12:41;;;;;;;5.65;3.25;;;;;;;24.80;66.53;98322.00;5019164;28;20037;-59
2022/08/05 05:15:07;;;;;;;5.53;3.20;;;;;;;24.84;66.15;98332.94;5011639;28;20485;-58
2022/08/05 05:17:39;;;;;;;4.60;2.80;;;;;;;24.90;65.46;98327.47;5013726;28;20496;-58
2022/08/05 05:20:06;;;;;;;5.22;3.40;;;;;;;24.87;66.04;98327.94;4999873;28;20030;-59
2022/08/05 05:22:31;;;;;;;4.90;3.05;;;;;;;24.95;65.88;98345.34;5003817;28;20144;-61
2022/08/05 05:24:57;;;;;;;5.53;2.88;;;;;;;24.97;65.71;98337.13;5019224;28;20159;-59
2022/08/05 05:27:22;;;;;;;5.07;2.65;;;;;;;24.91;66.04;98344.22;5017812;28;20043;-58
2022/08/05 05:29:48;;;;;;;5.15;3.13;;;;;;;24.93;66.19;98337.63;5020387;28;20472;-60
2022/08/05 05:32:13;;;;;;;5.38;3.00;;;;;;;24.97;66.24;98348.56;5024914;28;20029;-58
2022/08/05 05:34:38;;;;;;;5.38;2.85;;;;;;;25.07;65.65;98348.69;5017837;28;20554;-58
2022/08/05 05:37:04;;;;;;;4.93;2.88;;;;;;;25.10;65.01;98340.25;4983504;28;20037;-62
2022/08/05 05:39:30;;;;;;;6.95;3.35;;;;;;;25.06;64.92;98351.59;4975750;28;20034;-59
2022/08/05 05:41:55;;;;;;;6.80;3.25;;;;;;;25.09;64.91;98354.56;5018807;28;20037;-58
2022/08/05 05:44:20;;;;;;;5.13;3.13;;;;;;;25.15;64.16;98355.44;5011902;28;20152;-60
2022/08/05 05:46:46;;;;;;;5.20;3.13;;;;;;;25.09;64.77;98338.63;5018909;28;20034;-58
2022/08/05 05:49:11;;;;;;;5.30;2.92;;;;;;;25.25;64.52;98350.31;5008394;28;20025;-62
2022/08/05 05:51:37;;;;;;;4.85;2.88;;;;;;;25.26;64.14;98353.75;5009224;28;20687;-59
2022/08/05 05:54:02;;;;;;;4.90;2.70;;;;;;;25.23;64.27;98354.25;5013226;28;20128;-58
2022/08/05 05:56:31;;;;;;;5.00;2.92;;;;;;;25.24;64.43;98348.69;4999437;28;20633;-58
2022/08/05 05:58:56;;;;;;;4.88;2.83;;;;;;;25.27;64.40;98355.38;5014566;28;20025;-60
2022/08/05 06:01:22;;;;;;;5.07;3.10;;;;;;;25.21;64.04;98340.34;5024217;28;20488;-58
2022/08/05 06:03:47;;;;;;;5.00;2.80;;;;;;;25.28;64.41;98347.16;5024012;28;20018;-61
2022/08/05 06:06:13;;;;;;;6.13;3.03;;;;;;;25.31;64.10;98341.31;5021671;28;20042;-58
2022/08/05 06:08:38;;;;;;;5.82;3.00;;;;;;;25.38;63.59;98343.81;5022021;28;20034;-61
2022/08/05 06:11:03;;;;;;;7.25;2.85;;;;;;;25.15;63.33;98320.88;5022169;28;20489;-58
2022/08/05 06:13:29;;;;;;;5.72;2.92;;;;;;;25.31;63.49;98336.00;5019996;28;20026;-61
2022/08/05 06:15:54;;;;;;;5.38;2.95;;;;;;;25.29;63.27;98348.75;5021021;28;20042;-58
2022/08/05 06:18:20;;;;;;;6.63;2.90;;;;;;;25.40;62.73;98344.38;5019582;28;20116;-61
2022/08/05 06:20:45;;;;;;;5.50;3.00;;;;;;;25.50;62.39;98349.81;5017529;28;20172;-59
2022/08/05 06:23:11;;;;;;;5.75;3.25;;;;;;;25.50;62.79;98352.47;5022766;28;20067;-61
2022/08/05 06:25:36;;;;;;;5.75;3.03;;;;;;;25.44;62.53;98340.16;5003662;28;20040;-59
2022/08/05 06:28:02;;;;;;;5.57;2.67;;;;;;;25.61;62.57;98350.75;5016095;28;20112;-59
2022/08/05 06:30:27;;;;;;;4.80;2.97;;;;;;;25.51;62.52;98331.97;5022019;28;20057;-60
2022/08/05 06:32:52;;;;;;;4.60;2.85;;;;;;;25.54;62.33;98355.44;5015333;28;20108;-59
2022/08/05 06:35:18;;;;;;;5.68;2.97;;;;;;;25.63;62.39;98358.47;5023277;28;20041;-59
2022/08/05 06:37:44;;;;;;;4.93;2.92;;;;;;;25.74;63.22;98351.38;5015382;28;20104;-60
2022/08/05 06:40:10;;;;;;;5.35;2.78;;;;;;;25.76;61.89;98358.09;5022127;28;20108;-58
2022/08/05 06:42:36;;;;;;;4.95;2.53;;;;;;;25.73;61.34;98344.47;5021148;28;20092;-56
2022/08/05 06:45:03;;;;;;;6.75;2.90;;;;;;;25.85;60.91;98353.13;5002428;28;20049;-59
2022/08/05 06:47:29;;;;;;;5.30;2.63;;;;;;;25.87;60.63;98343.81;5017088;28;20057;-60
2022/08/05 06:49:54;;;;;;;6.20;3.10;;;;;;;25.71;61.09;98328.75;5015491;28;20030;-58
2022/08/05 06:52:20;;;;;;;7.15;3.00;;;;;;;25.75;61.60;98332.50;5021030;28;20037;-60
2022/08/05 06:54:45;;;;;;;6.85;2.83;;;;;;;25.82;62.37;98338.44;5021517;28;20037;-59
2022/08/05 06:57:13;;;;;;;5.28;3.10;;;;;;;25.93;61.69;98344.72;5018959;28;20032;-59
2022/08/05 06:59:39;;;;;;;6.63;3.10;;;;;;;25.98;62.24;98335.97;5017504;28;20188;-60
2022/08/05 07:02:05;;;;;;;8.40;2.83;;;;;;;26.08;61.37;98346.72;5008403;28;20030;-59
2022/08/05 07:04:31;;;;;;;6.03;3.20;;;;;;;26.12;60.96;98334.53;5032716;28;20141;-59
2022/08/05 07:06:56;;;;;;;5.68;3.22;;;;;;;26.12;60.65;98339.03;5021372;28;20117;-61
2022/08/05 07:09:21;;;;;;;7.38;3.08;;;;;;;26.16;61.28;98342.78;5007004;28;20034;-59
2022/08/05 07:11:47;;;;;;;6.85;2.95;;;;;;;26.25;61.05;98336.75;5010863;28;20534;-60
2022/08/05 07:17:00;;;;;;;6.68;2.78;;;;;;;26.27;61.94;98321.31;5016128;28;20037;-59
2022/08/05 07:19:27;;;;;;;;;;;;;;;26.30;61.63;98330.66;5004865;28;20095;-61
2022/08/05 07:21:54;;;;;;;6.80;2.78;;;;;;;26.34;61.09;98329.09;5021555;28;19913;-58
2022/08/05 07:24:20;;;;;;;5.90;3.67;;;;;;;26.34;61.27;98336.28;5004877;28;20120;-60
2022/08/05 07:26:45;;;;;;;6.97;3.45;;;;;;;26.37;60.86;98338.44;5022363;28;20063;-59
2022/08/05 07:29:11;;;;;;;6.60;3.22;;;;;;;26.43;60.14;98340.09;5020146;28;20127;-63
2022/08/05 07:31:37;;;;;;;6.30;3.40;;;;;;;26.20;59.73;98306.59;5016615;28;20656;-62
2022/08/05 07:34:03;;;;;;;6.32;3.63;;;;;;;26.31;59.67;98331.47;5011018;28;20038;-61
2022/08/05 07:36:28;;;;;;;6.05;3.40;;;;;;;26.49;59.26;98336.41;5014916;28;20033;-59
2022/08/05 07:38:54;;;;;;;5.13;3.45;;;;;;;26.36;58.36;98316.31;5019603;28;20649;-59
2022/08/05 07:41:21;;;;;;;5.18;3.10;;;;;;;26.58;57.98;98334.09;5023160;28;20029;-61
2022/08/05 07:43:47;;;;;;;6.18;3.05;;;;;;;26.26;57.96;98265.59;5004402;28;20029;-61
2022/08/05 07:46:12;;;;;;;5.70;2.80;;;;;;;26.57;56.71;98295.94;5017175;28;20545;-60
2022/08/05 07:48:38;;;;;;;5.15;2.85;;;;;;;26.84;55.98;98337.75;5012865;28;20018;-59
2022/08/05 07:51:03;;;;;;;5.57;2.80;;;;;;;26.77;53.72;98331.84;5015699;28;20744;-62
2022/08/05 07:53:28;;;;;;;6.32;3.00;;;;;;;26.54;54.42;98299.13;5015852;28;20138;-58
2022/08/05 07:55:54;;;;;;;7.93;3.20;;;;;;;26.80;54.37;98334.78;5016222;28;20886;-62
2022/08/05 07:58:19;;;;;;;6.20;2.90;;;;;;;26.80;55.61;98336.66;5020036;28;20099;-60
2022/08/05 08:00:45;;;;;;;6.53;2.90;;;;;;;26.66;55.81;98330.97;5022406;28;20080;-60
2022/08/05 08:03:11;;;;;;;6.40;3.03;;;;;;;26.62;56.74;98335.19;5016643;28;20752;-58
2022/08/05 08:05:43;;;;;;;5.40;3.00;;;;;;;26.59;56.33;98331.13;5003223;28;20036;-60
2022/08/05 08:08:12;;;;;;;5.95;2.90;;;;;;;26.31;56.94;98297.63;5019375;28;20774;-57
2022/08/05 08:10:39;;;;;;;5.93;3.60;;;;;;;26.59;56.89;98325.00;5021572;28;20791;-59
2022/08/05 08:13:04;;;;;;;4.78;2.90;;;;;;;27.14;56.23;98331.75;5017354;28;20033;-59
2022/08/05 08:15:30;;;;;;;5.95;2.97;;;;;;;27.65;53.49;98331.19;5017147;28;20151;-61
2022/08/05 08:17:56;;;;;;;5.60;3.10;;;;;;;28.08;52.82;98323.03;5013900;28;20053;-61
2022/08/05 08:20:22;;;;;;;5.47;3.10;;;;;;;28.23;52.53;98293.63;5016064;28;20145;-60
2022/08/05 08:23:06;;;;;;;6.85;3.30;;;;;;;28.45;52.16;98284.53;5019797;28;20128;-59
2022/08/05 08:25:32;;;;;;;6.30;3.08;;;;;;;28.89;51.03;98313.34;5011083;28;20029;-60
2022/08/05 08:27:58;;;;;;;6.88;3.15;;;;;;;29.16;50.06;98317.59;5018483;28;20030;-59
2022/08/05 08:30:23;;;;;;;6.35;3.00;;;;;;;29.19;50.34;98283.03;5014840;28;20113;-58
2022/08/05 08:32:49;;;;;;;5.45;2.90;;;;;;;29.39;49.95;98325.00;5018875;28;20116;-60
2022/08/05 08:35:14;;;;;;;5.60;3.00;;;;;;;29.43;48.95;98309.97;5020198;28;20563;-60
2022/08/05 08:37:40;;;;;;;7.90;3.28;;;;;;;29.30;50.06;98284.59;5014101;28;20484;-58
2022/08/05 08:40:06;;;;;;;5.32;2.95;;;;;;;29.79;49.78;98314.34;5012192;28;20571;-60
2022/08/05 08:42:32;;;;;;;6.10;2.95;;;;;;;30.14;48.59;98304.44;5017396;28;20068;-59
2022/08/05 08:44:58;;;;;;;5.75;3.13;;;;;;;30.08;48.48;98307.19;5015419;28;20484;-59
2022/08/05 08:47:24;;;;;;;4.70;2.90;;;;;;;30.49;47.12;98299.91;5015162;28;20109;-58
2022/08/05 08:49:52;;;;;;;7.30;3.03;;;;;;;30.86;46.92;98294.66;5002200;28;20025;-59
2022/08/05 08:52:28;;;;;;;5.25;3.03;;;;;;;31.23;45.13;98301.25;4999740;28;20083;-58
2022/08/05 08:54:54;;;;;;;6.20;2.90;;;;;;;31.18;44.92;98298.63;5030095;28;20087;-57
2022/08/05 08:57:20;;;;;;;5.90;2.95;;;;;;;31.11;45.06;98303.56;5014566;28;20755;-61
2022/08/05 08:59:46;;;;;;;6.60;3.30;;;;;;;31.16;44.74;98295.44;5003213;28;20103;-59
2022/08/05 09:02:13;;;;;;;6.70;3.60;;;;;;;31.36;44.13;98301.63;4997442;28;20896;-58
2022/08/05 09:04:38;;;;;;;5.22;2.97;;;;;;;31.35;44.19;98295.47;5018159;28;20083;-59
2022/08/05 09:07:05;;;;;;;6.25;2.67;;;;;;;31.43;43.45;98296.69;5017838;28;20037;-59
2022/08/05 09:09:31;;;;;;;7.93;2.92;;;;;;;31.70;42.15;98298.78;4992543;28;20700;-60
2022/08/05 09:11:57;;;;;;;5.93;2.78;;;;;;;32.13;40.80;98295.22;5018932;28;20021;-61
2022/08/05 09:14:23;;;;;;;7.13;2.88;;;;;;;32.51;40.28;98295.06;5018577;28;20042;-59
2022/08/05 09:16:48;;;;;;;7.10;2.97;;;;;;;32.48;39.83;98288.41;5016900;28;20079;-62
2022/08/05 09:19:14;;;;;;;5.35;2.80;;;;;;;32.54;39.68;98286.41;5018542;28;20029;-62
2022/08/05 09:21:39;;;;;;;4.72;2.83;;;;;;;32.40;39.76;98283.69;5021572;28;20033;-63
2022/08/05 09:24:07;;;;;;;4.25;2.50;;;;;;;32.14;39.15;98259.94;5020822;28;20236;-59
2022/08/05 09:26:33;;;;;;;4.40;2.42;;;;;;;32.32;39.51;98285.19;5018272;28;20026;-60
2022/08/05 09:29:03;;;;;;;6.35;2.58;;;;;;;32.41;38.76;98279.13;5015927;28;20120;-59
2022/08/05 09:31:29;;;;;;;5.05;2.67;;;;;;;31.87;36.83;98275.94;5023588;28;20098;-64
2022/08/05 09:34:01;;;;;;;5.40;2.65;;;;;;;31.43;39.98;98270.66;5021982;28;20144;-60
2022/08/05 09:36:44;;;;;;;7.43;2.80;;;;;;;31.11;43.95;98267.88;5004581;28;20033;-60
2022/08/05 09:39:12;;;;;;;4.35;2.60;;;;;;;30.71;44.47;98259.19;5021190;28;20029;-62
2022/08/05 09:41:57;;;;;;;5.32;2.83;;;;;;;30.35;47.38;98263.00;5000089;28;20541;-58
2022/08/05 09:44:40;;;;;;;5.63;2.72;;;;;;;30.05;47.03;98262.16;5017771;28;20064;-59
2022/08/05 09:47:08;;;;;;;6.00;3.13;;;;;;;29.92;47.52;98259.31;5006129;28;20045;-61
2022/08/05 09:49:33;;;;;;;5.38;3.00;;;;;;;29.52;48.86;98257.44;5021182;28;20464;-62
2022/08/05 09:52:16;;;;;;;4.38;2.97;;;;;;;29.37;48.61;98229.94;5022298;28;20059;-61
2022/08/05 09:54:53;;;;;;;5.55;2.80;;;;;;;29.57;46.12;98242.41;5022683;28;20486;-62
2022/08/05 09:57:35;;;;;;;5.05;2.75;;;;;;;29.42;46.91;98227.22;5004835;28;20025;-62
2022/08/05 10:00:04;;;;;;;6.00;3.20;;;;;;;29.65;49.63;98218.50;5017687;28;20116;-62
2022/08/05 10:02:37;;;;;;;6.28;3.00;;;;;;;29.88;49.31;98237.63;5012331;28;20068;-63
2022/08/05 10:05:14;;;;;;;7.35;2.58;;;;;;;29.76;47.57;98235.34;5022443;28;20037;-63
2022/08/05 10:07:43;;;;;;;4.63;2.80;;;;;;;29.71;46.71;98241.47;5012908;28;20118;-60
2022/08/05 10:10:09;;;;;;;4.88;3.05;;;;;;;29.82;47.39;98220.81;5016916;28;20042;-59
2022/08/05 10:12:52;;;;;;;7.30;3.00;;;;;;;30.07;43.47;98222.47;5026315;28;20072;-60
2022/08/05 10:15:26;;;;;;;4.55;2.80;;;;;;;30.08;42.30;98191.94;5006535;28;20119;-61
2022/08/05 10:18:14;;;;;;;6.80;3.00;;;;;;;30.18;41.28;98223.19;5006674;28;20025;-62
2022/08/05 10:21:05;;;;;;;4.55;2.80;;;;;;;30.17;43.58;98216.22;5022070;28;20088;-61
2022/08/05 10:23:34;;;;;;;5.03;2.65;;;;;;;30.17;41.15;98221.56;5018178;28;20444;-61
2022/08/05 10:26:03;;;;;;;9.07;4.78;;;;;;;30.28;41.11;98214.25;5019055;28;20021;-60
2022/08/05 10:28:29;;;;;;;4.10;2.38;;;;;;;30.45;40.07;98219.22;5003062;28;20087;-61
2022/08/05 10:30:55;;;;;;;4.75;2.58;;;;;;;30.54;39.41;98189.84;5019186;28;20030;-61
2022/08/05 10:33:22;;;;;;;6.28;2.45;;;;;;;30.84;37.89;98213.66;5005383;28;20073;-60
2022/08/05 10:35:49;;;;;;;5.03;2.75;;;;;;;30.64;43.05;98179.03;5021334;28;20028;-59
2022/08/05 10:38:27;;;;;;;4.85;2.42;;;;;;;30.88;42.97;98180.88;5003305;28;20030;-60
2022/08/05 10:40:59;;;;;;;5.65;2.90;;;;;;;31.01;45.07;98196.28;5021944;28;20040;-59
2022/08/05 10:43:48;;;;;;;7.18;3.00;;;;;;;30.89;43.40;98187.84;5020634;28;20033;-63
2022/08/05 10:46:17;;;;;;;5.05;2.72;;;;;;;30.76;43.24;98165.19;5005176;28;20067;-60
2022/08/05 10:48:45;;;;;;;5.18;3.00;;;;;;;31.16;43.05;98196.09;5005075;28;20026;-61
2022/08/05 10:51:16;;;;;;;7.43;3.00;;;;;;;31.14;41.73;98187.53;5007052;28;20067;-60
2022/08/05 10:53:55;;;;;;;4.55;2.60;;;;;;;31.02;41.36;98157.63;5005287;28;20571;-62
2022/08/05 10:56:23;;;;;;;6.07;2.50;;;;;;;31.30;40.55;98177.34;5021758;28;20025;-59
2022/08/05 10:58:50;;;;;;;4.73;2.60;;;;;;;31.38;40.27;98182.09;5021824;28;20025;-59
2022/08/05 11:01:15;;;;;;;6.05;2.90;;;;;;;31.63;37.45;98179.31;5019352;28;20041;-61
2022/08/05 11:04:01;;;;;;;7.20;3.00;;;;;;;31.86;37.54;98178.41;5016776;28;20045;-59
2022/08/05 11:06:26;;;;;;;6.55;2.80;;;;;;;32.08;36.22;98174.28;5019550;28;20761;-59
2022/08/05 11:09:18;;;;;;;4.90;3.00;;;;;;;32.30;35.98;98179.00;5015850;28;20075;-63
2022/08/05 11:11:49;;;;;;;4.20;2.50;;;;;;;32.26;35.65;98170.72;5021830;28;20025;-62
2022/08/05 11:14:32;;;;;;;4.95;2.88;;;;;;;32.28;36.04;98163.16;5023747;28;20043;-60
2022/08/05 11:17:26;;;;;;;5.40;2.85;;;;;;;32.45;35.43;98162.53;5020904;28;20030;-63
2022/08/05 11:19:56;;;;;;;5.20;2.75;;;;;;;32.51;36.07;98160.56;5016132;28;20093;-61
2022/08/05 11:22:46;;;;;;;4.63;2.67;;;;;;;33.03;33.95;98163.81;5023156;28;20029;-60
2022/08/05 11:25:34;;;;;;;6.32;2.78;;;;;;;32.94;34.64;98160.22;5021282;28;20852;-60
2022/08/05 11:28:08;;;;;;;4.70;2.72;;;;;;;32.75;35.21;98128.09;5015614;28;20034;-59
2022/08/05 11:31:04;;;;;;;4.82;2.90;;;;;;;33.08;34.60;98157.53;5014855;28;20037;-58
2022/08/05 11:33:37;;;;;;;4.85;2.92;;;;;;;32.86;35.10;98134.84;5019859;28;20789;-58
2022/08/05 11:36:08;;;;;;;8.13;2.78;;;;;;;33.00;35.12;98145.53;5004459;28;20032;-60
2022/08/05 11:38:42;;;;;;;4.75;2.70;;;;;;;33.01;34.45;98143.66;5003185;28;20030;-59
2022/08/05 11:41:24;;;;;;;5.90;2.90;;;;;;;32.99;34.94;98149.34;5018182;28;20100;-60
2022/08/05 11:44:06;;;;;;;4.70;2.67;;;;;;;33.18;34.19;98137.66;5016429;28;20467;-60